createdAt,value
2022-11-13T00:01:25.936Z,66.04
2022-11-13T00:04:11.622Z,66.08
2022-11-13T00:06:59.452Z,66.06
2022-11-13T00:09:45.649Z,66.18
2022-11-13T00:12:31.420Z,66.32
2022-11-13T00:15:16.872Z,66.08
2022-11-13T00:18:02.569Z,66.19
2022-11-13T00:20:48.402Z,66.26
2022-11-13T00:23:36.009Z,66.14
2022-11-13T00:26:29.467Z,66.01
2022-11-13T00:29:15.056Z,66.21
2022-11-13T00:32:00.481Z,66.41
2022-11-13T00:34:48.414Z,66.19
2022-11-13T00:37:34.269Z,66.22
2022-11-13T00:40:20.005Z,66.31
2022-11-13T00:43:05.774Z,66.59
2022-11-13T00:45:51.754Z,66.63
2022-11-13T00:48:37.503Z,66.65
2022-11-13T00:51:23.391Z,67.01
2022-11-13T00:54:09.406Z,66.98
2022-11-13T00:56:55.382Z,67.03
2022-11-13T00:59:41.083Z,66.93
2022-11-13T01:02:26.542Z,66.87
2022-11-13T01:05:12.145Z,66.82
2022-11-13T01:07:57.643Z,66.67
2022-11-13T01:10:53.071Z,66.31
2022-11-13T01:13:44.176Z,66.33
2022-11-13T01:16:30.019Z,66.90
2022-11-13T01:19:15.426Z,66.92
2022-11-13T01:22:00.944Z,67.06
2022-11-13T01:24:46.631Z,67.09
2022-11-13T01:27:32.262Z,67.23
2022-11-13T01:30:17.953Z,66.87
2022-11-13T01:33:03.679Z,66.88
2022-11-13T01:35:49.284Z,66.74
2022-11-13T01:38:36.876Z,66.54
2022-11-13T01:41:25.960Z,66.62
2022-11-13T01:44:15.427Z,66.63
2022-11-13T01:47:01.214Z,66.70
2022-11-13T01:49:49.144Z,66.82
2022-11-13T01:52:40.700Z,66.84
2022-11-13T01:55:26.557Z,66.73
2022-11-13T01:58:13.446Z,66.76
2022-11-13T02:00:59.528Z,66.55
2022-11-13T02:03:45.240Z,66.61
2022-11-13T02:06:37.692Z,66.48
2022-11-13T02:09:27.905Z,66.52
2022-11-13T02:12:16.856Z,66.79
2022-11-13T02:15:06.238Z,66.55
2022-11-13T02:18:01.575Z,66.43
2022-11-13T02:21:05.485Z,66.56
2022-11-13T02:24:17.400Z,66.35
2022-11-13T02:27:06.050Z,66.54
2022-11-13T02:29:51.898Z,66.86
2022-11-13T02:32:46.928Z,66.07
2022-11-13T02:35:36.974Z,66.20
2022-11-13T02:38:22.745Z,66.48
2022-11-13T02:41:08.328Z,66.95
2022-11-13T02:43:53.976Z,67.14
2022-11-13T02:46:39.454Z,67.11
2022-11-13T02:49:25.075Z,67.02
2022-11-13T02:52:10.875Z,67.25
2022-11-13T02:54:56.855Z,67.31
2022-11-13T02:57:42.691Z,67.27
2022-11-13T03:00:28.203Z,67.21
2022-11-13T03:03:14.296Z,67.06
2022-11-13T03:05:59.882Z,67.00
2022-11-13T03:08:45.657Z,67.03
2022-11-13T03:11:31.274Z,66.60
2022-11-13T03:14:16.735Z,66.58
2022-11-13T03:17:02.757Z,66.72
2022-11-13T03:19:48.487Z,66.68
2022-11-13T03:22:34.085Z,67.09
2022-11-13T03:25:19.921Z,67.06
2022-11-13T03:28:06.014Z,67.32
2022-11-13T03:30:51.871Z,67.39
2022-11-13T03:33:37.113Z,67.13
2022-11-13T03:36:22.836Z,67.02
2022-11-13T03:39:08.633Z,66.94
2022-11-13T03:41:54.310Z,66.92
2022-11-13T03:44:40.376Z,67.07
2022-11-13T03:47:25.970Z,67.01
2022-11-13T03:50:11.798Z,67.09
2022-11-13T03:52:57.673Z,67.17
2022-11-13T03:55:43.921Z,66.99
2022-11-13T03:58:29.995Z,66.73
2022-11-13T04:01:16.047Z,66.39
2022-11-13T04:04:01.815Z,66.34
2022-11-13T04:06:47.419Z,65.85
2022-11-13T04:09:33.254Z,66.21
2022-11-13T04:12:18.727Z,66.28
2022-11-13T04:15:05.046Z,66.21
2022-11-13T04:17:50.750Z,66.28
2022-11-13T04:20:36.798Z,66.19
2022-11-13T04:23:22.526Z,66.35
2022-11-13T04:26:08.299Z,66.52
2022-11-13T04:28:54.132Z,66.67
2022-11-13T04:31:39.686Z,66.58
2022-11-13T04:34:25.464Z,66.52
2022-11-13T04:37:11.142Z,66.46
2022-11-13T04:39:57.005Z,66.42
2022-11-13T04:42:42.701Z,66.35
2022-11-13T04:45:28.086Z,66.61
2022-11-13T04:48:13.653Z,66.65
2022-11-13T04:50:59.140Z,66.42
2022-11-13T04:53:44.650Z,66.43
2022-11-13T04:56:30.163Z,66.34
2022-11-13T04:59:15.511Z,66.49
2022-11-13T05:02:01.389Z,66.71
2022-11-13T05:04:47.094Z,66.85
2022-11-13T05:07:32.569Z,66.62
2022-11-13T05:10:18.176Z,66.42
2022-11-13T05:13:03.833Z,66.35
2022-11-13T05:15:49.585Z,66.14
2022-11-13T05:18:36.768Z,65.66
2022-11-13T05:21:22.351Z,65.76
2022-11-13T05:24:10.818Z,65.75
2022-11-13T05:26:56.471Z,66.05
2022-11-13T05:29:42.126Z,66.19
2022-11-13T05:32:28.168Z,66.37
2022-11-13T05:35:14.190Z,66.11
2022-11-13T05:38:02.686Z,66.04
2022-11-13T05:40:48.227Z,66.40
2022-11-13T05:43:35.189Z,66.26
2022-11-13T05:46:23.776Z,65.84
2022-11-13T05:49:10.270Z,65.99
2022-11-13T05:51:55.825Z,65.70
2022-11-13T05:54:41.301Z,65.82
2022-11-13T05:57:26.886Z,66.16
2022-11-13T06:00:12.777Z,65.90
2022-11-13T06:03:00.122Z,65.80
2022-11-13T06:05:45.868Z,66.19
2022-11-13T06:08:31.640Z,65.96
2022-11-13T06:11:22.232Z,65.87
2022-11-13T06:14:07.748Z,65.82
2022-11-13T06:16:53.100Z,65.90
2022-11-13T06:19:38.591Z,66.04
2022-11-13T06:22:24.101Z,66.28
2022-11-13T06:25:09.676Z,66.24
2022-11-13T06:27:55.467Z,66.32
2022-11-13T06:30:40.807Z,66.64
2022-11-13T06:33:28.531Z,66.95
2022-11-13T06:36:17.576Z,67.14
2022-11-13T06:39:07.118Z,67.30
2022-11-13T06:41:53.058Z,67.61
2022-11-13T06:44:39.257Z,67.30
2022-11-13T06:47:25.017Z,67.29
2022-11-13T06:50:10.690Z,67.12
2022-11-13T06:52:56.145Z,66.96
2022-11-13T06:55:49.130Z,66.24
2022-11-13T06:58:34.740Z,66.96
2022-11-13T07:01:22.766Z,66.90
2022-11-13T07:04:12.166Z,66.67
2022-11-13T07:06:57.885Z,66.63
2022-11-13T07:09:43.713Z,66.34
2022-11-13T07:12:29.212Z,66.10
2022-11-13T07:15:14.660Z,65.80
2022-11-13T07:18:00.957Z,65.31
2022-11-13T07:20:46.758Z,65.61
2022-11-13T07:23:33.264Z,65.95
2022-11-13T07:26:19.265Z,66.19
2022-11-13T07:29:04.804Z,66.45
2022-11-13T07:31:50.517Z,66.41
2022-11-13T07:34:36.098Z,66.88
2022-11-13T07:37:21.510Z,66.73
2022-11-13T07:40:07.371Z,66.76
2022-11-13T07:43:00.317Z,66.25
2022-11-13T07:45:45.895Z,66.66
2022-11-13T07:48:32.211Z,66.73
2022-11-13T07:51:18.438Z,67.14
2022-11-13T07:54:04.445Z,67.31
2022-11-13T07:56:50.177Z,67.79
2022-11-13T07:59:35.674Z,67.99
2022-11-13T08:02:26.233Z,68.19
2022-11-13T08:05:12.170Z,68.53
2022-11-13T08:07:57.507Z,68.53
2022-11-13T08:10:43.331Z,68.29
2022-11-13T08:13:29.011Z,68.49
2022-11-13T08:16:14.779Z,67.90
2022-11-13T08:19:00.717Z,67.99
2022-11-13T08:21:46.275Z,67.69
2022-11-13T08:24:31.679Z,67.41
2022-11-13T08:27:17.163Z,67.71
2022-11-13T08:30:02.693Z,67.88
2022-11-13T08:32:48.566Z,68.07
2022-11-13T08:35:34.185Z,67.99
2022-11-13T08:38:19.664Z,68.19
2022-11-13T08:41:09.411Z,68.04
2022-11-13T08:43:55.669Z,68.16
2022-11-13T08:46:41.420Z,67.99
2022-11-13T08:49:27.066Z,67.80
2022-11-13T08:52:12.877Z,67.86
2022-11-13T08:54:58.243Z,68.37
2022-11-13T08:57:43.623Z,68.21
2022-11-13T09:00:30.259Z,68.05
2022-11-13T09:03:15.784Z,67.80
2022-11-13T09:06:04.313Z,67.46
2022-11-13T09:08:50.007Z,67.67
2022-11-13T09:11:35.652Z,68.16
2022-11-13T09:14:21.460Z,68.29
2022-11-13T09:17:07.018Z,68.43
2022-11-13T09:19:52.758Z,68.37
2022-11-13T09:22:38.595Z,68.38
2022-11-13T09:25:24.357Z,68.38
2022-11-13T09:28:10.645Z,67.72
2022-11-13T09:30:56.357Z,67.53
2022-11-13T09:33:42.306Z,66.98
2022-11-13T09:36:27.987Z,66.82
2022-11-13T09:39:13.943Z,66.37
2022-11-13T09:42:15.986Z,65.39
2022-11-13T09:45:21.776Z,64.78
2022-11-13T09:48:27.779Z,64.55
2022-11-13T09:51:21.688Z,65.18
2022-11-13T09:54:12.422Z,65.20
2022-11-13T09:57:41.034Z,65.21
2022-11-13T10:00:28.538Z,66.50
2022-11-13T10:03:59.860Z,65.40
2022-11-13T10:06:44.010Z,67.06
2022-11-13T10:09:46.720Z,65.82
2022-11-13T10:12:33.706Z,66.97
2022-11-13T10:15:20.231Z,66.92
2022-11-13T10:18:28.000Z,66.13
2022-11-13T10:21:35.015Z,65.33
2022-11-13T10:24:28.392Z,65.35
2022-11-13T10:27:14.952Z,66.56
2022-11-13T10:30:00.573Z,66.01
2022-11-13T10:32:46.876Z,65.96
2022-11-13T10:35:46.891Z,64.82
2022-11-13T10:38:40.390Z,65.15
2022-11-13T10:41:25.929Z,66.08
2022-11-13T10:44:35.034Z,64.74
2022-11-13T10:47:49.165Z,65.27
2022-11-13T10:50:30.701Z,65.66
2022-11-13T10:53:18.465Z,65.57
2022-11-13T10:56:25.211Z,64.95
2022-11-13T10:59:20.035Z,66.20
2022-11-13T11:02:17.192Z,65.36
2022-11-13T11:05:19.035Z,65.35
2022-11-13T11:08:10.149Z,65.02
2022-11-13T11:11:01.350Z,65.16
2022-11-13T11:13:48.272Z,65.98
2022-11-13T11:16:33.840Z,66.09
2022-11-13T11:19:27.620Z,64.89
2022-11-13T11:22:19.920Z,65.52
2022-11-13T11:25:20.346Z,65.66
2022-11-13T11:28:32.686Z,64.87
2022-11-13T11:31:31.608Z,63.59
2022-11-13T11:34:30.638Z,64.09
2022-11-13T11:37:22.845Z,64.56
2022-11-13T11:40:25.589Z,63.89
2022-11-13T11:43:19.810Z,64.48
2022-11-13T11:46:05.734Z,65.42
2022-11-13T11:48:52.327Z,65.32
2022-11-13T11:52:04.639Z,64.96
2022-11-13T11:55:26.621Z,64.64
2022-11-13T11:58:17.346Z,64.85
2022-11-13T12:01:17.039Z,64.45
2022-11-13T12:04:39.309Z,64.04
2022-11-13T12:07:39.213Z,64.58
2022-11-13T12:10:37.838Z,63.77
2022-11-13T12:13:32.044Z,63.40
2022-11-13T12:17:17.236Z,63.44
2022-11-13T12:20:29.450Z,63.62
2022-11-13T12:23:21.278Z,64.63
2022-11-13T12:26:06.849Z,64.47
2022-11-13T12:29:24.853Z,63.94
2022-11-13T12:32:39.513Z,63.30
2022-11-13T12:35:26.761Z,63.98
2022-11-13T12:38:31.866Z,63.69
2022-11-13T12:41:47.035Z,63.16
2022-11-13T12:44:44.787Z,62.13
2022-11-13T12:47:30.746Z,62.80
2022-11-13T12:50:28.720Z,62.37
2022-11-13T12:53:26.624Z,61.73
2022-11-13T12:56:35.613Z,61.39
2022-11-13T12:59:36.469Z,62.85
2022-11-13T13:02:59.718Z,61.77
2022-11-13T13:05:54.390Z,62.09
2022-11-13T13:09:20.845Z,61.61
2022-11-13T13:12:24.093Z,61.88
2022-11-13T13:15:12.422Z,61.26
2022-11-13T13:18:13.006Z,62.33
2022-11-13T13:21:07.337Z,61.65
2022-11-13T13:24:08.037Z,61.63
2022-11-13T13:26:54.295Z,62.92
2022-11-13T13:29:40.962Z,63.00
2022-11-13T13:32:35.978Z,62.18
2022-11-13T13:35:26.598Z,62.39
2022-11-13T13:38:26.286Z,62.48
2022-11-13T13:41:33.870Z,61.89
2022-11-13T13:44:37.566Z,63.48
2022-11-13T13:47:31.395Z,62.33
2022-11-13T13:50:21.813Z,61.72
2022-11-13T13:53:11.863Z,62.46
2022-11-13T13:55:59.225Z,62.90
2022-11-13T13:58:45.415Z,63.10
2022-11-13T14:01:33.938Z,63.01
2022-11-13T14:04:21.847Z,63.12
2022-11-13T14:07:38.999Z,62.38
2022-11-13T14:10:26.903Z,63.41
2022-11-13T14:13:13.581Z,63.76
2022-11-13T14:16:07.136Z,62.85
2022-11-13T14:19:03.996Z,63.18
2022-11-13T14:21:56.140Z,63.24
2022-11-13T14:24:53.236Z,63.31
2022-11-13T14:27:38.749Z,63.85
2022-11-13T14:30:27.450Z,63.69
2022-11-13T14:33:22.431Z,63.54
2022-11-13T14:36:09.106Z,64.03
2022-11-13T14:38:54.783Z,64.24
2022-11-13T14:41:46.408Z,64.21
2022-11-13T14:44:33.786Z,64.41
2022-11-13T14:47:29.615Z,64.13
2022-11-13T14:50:32.789Z,63.83
2022-11-13T14:53:32.826Z,64.06
2022-11-13T14:56:18.611Z,64.07
2022-11-13T14:59:09.967Z,63.99
2022-11-13T15:01:58.342Z,64.00
2022-11-13T15:04:44.025Z,64.26
2022-11-13T15:07:32.556Z,64.25
2022-11-13T15:10:20.833Z,64.08
2022-11-13T15:13:17.903Z,63.71
2022-11-13T15:16:04.134Z,63.93
2022-11-13T15:18:58.639Z,63.72
2022-11-13T15:22:05.539Z,63.81
2022-11-13T15:24:51.382Z,63.90
2022-11-13T15:27:41.843Z,63.87
2022-11-13T15:30:28.764Z,63.75
2022-11-13T15:33:15.543Z,63.84
2022-11-13T15:36:01.373Z,63.90
2022-11-13T15:38:46.896Z,63.67
2022-11-13T15:41:33.562Z,63.67
2022-11-13T15:44:19.012Z,63.64
2022-11-13T15:47:27.708Z,63.62
2022-11-13T15:50:14.801Z,63.82
2022-11-13T15:53:05.275Z,63.88
2022-11-13T15:55:51.428Z,63.91
2022-11-13T15:58:37.158Z,63.95
2022-11-13T16:01:23.121Z,64.05
2022-11-13T16:04:09.799Z,64.18
2022-11-13T16:06:55.835Z,64.28
2022-11-13T16:09:42.053Z,64.17
2022-11-13T16:12:27.770Z,64.25
2022-11-13T16:15:17.080Z,64.22
2022-11-13T16:18:03.302Z,64.29
2022-11-13T16:20:48.784Z,64.30
2022-11-13T16:23:34.099Z,64.26
2022-11-13T16:26:24.927Z,64.28
2022-11-13T16:29:18.937Z,64.83
2022-11-13T16:32:04.624Z,64.68
2022-11-13T16:34:50.371Z,64.93
2022-11-13T16:37:35.891Z,64.83
2022-11-13T16:40:25.555Z,64.62
2022-11-13T16:43:11.945Z,64.85
2022-11-13T16:45:59.914Z,64.70
2022-11-13T16:48:45.512Z,64.71
2022-11-13T16:51:31.212Z,64.70
2022-11-13T16:54:16.510Z,64.83
2022-11-13T16:57:01.935Z,64.85
2022-11-13T16:59:47.766Z,64.92
2022-11-13T17:02:33.241Z,64.94
2022-11-13T17:05:20.958Z,64.86
2022-11-13T17:08:06.412Z,64.91
2022-11-13T17:10:58.548Z,64.34
2022-11-13T17:13:48.961Z,64.50
2022-11-13T17:16:34.823Z,64.46
2022-11-13T17:19:20.182Z,64.53
2022-11-13T17:22:06.293Z,64.62
2022-11-13T17:24:52.176Z,64.95
2022-11-13T17:27:37.900Z,65.05
2022-11-13T17:30:24.055Z,65.07
2022-11-13T17:33:10.113Z,65.14
2022-11-13T17:35:57.021Z,65.25
2022-11-13T17:38:42.863Z,65.07
2022-11-13T17:41:28.167Z,64.74
2022-11-13T17:44:13.921Z,64.86
2022-11-13T17:46:59.406Z,64.87
2022-11-13T17:49:44.789Z,65.20
2022-11-13T17:52:30.227Z,65.35
2022-11-13T17:55:15.535Z,65.44
2022-11-13T17:58:01.819Z,65.39
2022-11-13T18:00:47.597Z,65.30
2022-11-13T18:03:33.590Z,65.14
2022-11-13T18:06:20.582Z,65.14
2022-11-13T18:09:06.274Z,65.34
2022-11-13T18:11:52.084Z,65.44
2022-11-13T18:14:37.766Z,65.56
2022-11-13T18:17:23.417Z,65.64
2022-11-13T18:20:09.216Z,65.49
2022-11-13T18:22:55.529Z,65.51
2022-11-13T18:25:41.119Z,65.52
2022-11-13T18:28:27.012Z,65.33
2022-11-13T18:31:16.776Z,65.53
2022-11-13T18:34:03.743Z,65.63
2022-11-13T18:36:49.153Z,65.46
2022-11-13T18:39:34.555Z,65.70
2022-11-13T18:42:20.033Z,65.77
2022-11-13T18:45:06.488Z,65.75
2022-11-13T18:47:52.010Z,65.57
2022-11-13T18:50:37.324Z,65.60
2022-11-13T18:53:22.970Z,65.56
2022-11-13T18:56:14.776Z,65.58
2022-11-13T18:59:00.409Z,65.55
2022-11-13T19:01:46.684Z,65.55
2022-11-13T19:04:34.293Z,65.63
2022-11-13T19:07:20.021Z,65.86
2022-11-13T19:10:06.320Z,65.96
2022-11-13T19:12:51.974Z,66.03
2022-11-13T19:15:38.746Z,66.16
2022-11-13T19:18:24.462Z,66.29
2022-11-13T19:21:15.128Z,66.87
2022-11-13T19:24:01.571Z,66.39
2022-11-13T19:26:47.088Z,66.75
2022-11-13T19:29:32.764Z,66.38
2022-11-13T19:32:18.296Z,66.20
2022-11-13T19:35:04.016Z,66.06
2022-11-13T19:37:56.371Z,66.45
2022-11-13T19:40:46.113Z,66.37
2022-11-13T19:43:35.937Z,66.45
2022-11-13T19:46:21.813Z,66.57
2022-11-13T19:49:07.540Z,66.49
2022-11-13T19:51:56.053Z,67.06
2022-11-13T19:54:41.486Z,66.82
2022-11-13T19:57:27.010Z,66.88
2022-11-13T20:00:12.732Z,66.82
2022-11-13T20:02:58.371Z,66.84
2022-11-13T20:05:44.049Z,66.59
2022-11-13T20:08:30.164Z,66.74
2022-11-13T20:11:16.308Z,67.02
2022-11-13T20:14:02.017Z,66.97
2022-11-13T20:16:47.504Z,67.00
2022-11-13T20:19:34.405Z,66.75
2022-11-13T20:22:20.130Z,66.71
2022-11-13T20:25:06.012Z,66.67
2022-11-13T20:27:51.571Z,66.62
2022-11-13T20:30:37.082Z,66.51
2022-11-13T20:33:23.056Z,66.34
2022-11-13T20:36:08.647Z,66.42
2022-11-13T20:38:57.507Z,66.21
2022-11-13T20:41:43.574Z,66.18
2022-11-13T20:44:29.217Z,66.32
2022-11-13T20:47:15.108Z,66.51
2022-11-13T20:50:00.586Z,66.52
2022-11-13T20:52:46.407Z,66.39
2022-11-13T20:55:32.380Z,66.56
2022-11-13T20:58:17.800Z,66.47
2022-11-13T21:01:09.311Z,66.37
2022-11-13T21:03:55.257Z,66.26
2022-11-13T21:06:40.593Z,66.12
2022-11-13T21:09:26.298Z,66.15
2022-11-13T21:12:12.077Z,66.24
2022-11-13T21:14:57.441Z,66.54
2022-11-13T21:17:42.965Z,66.23
2022-11-13T21:20:28.394Z,66.37
2022-11-13T21:23:14.542Z,66.37
2022-11-13T21:26:01.362Z,66.15
2022-11-13T21:28:47.521Z,66.14
2022-11-13T21:31:33.279Z,66.10
2022-11-13T21:34:18.759Z,66.18
2022-11-13T21:37:04.138Z,66.11
2022-11-13T21:39:49.719Z,66.33
2022-11-13T21:42:35.145Z,66.19
2022-11-13T21:45:21.141Z,66.42
2022-11-13T21:48:06.890Z,66.21
2022-11-13T21:50:55.371Z,66.41
2022-11-13T21:53:42.586Z,66.26
2022-11-13T21:56:29.819Z,66.25
2022-11-13T21:59:15.407Z,66.40
2022-11-13T22:02:01.306Z,66.46
2022-11-13T22:04:46.913Z,66.91
2022-11-13T22:07:32.769Z,66.75
2022-11-13T22:10:18.401Z,66.68
2022-11-13T22:13:04.153Z,66.67
2022-11-13T22:15:49.960Z,66.75
2022-11-13T22:18:35.884Z,66.59
2022-11-13T22:21:22.225Z,66.72
2022-11-13T22:24:09.041Z,66.75
2022-11-13T22:26:54.637Z,66.61
2022-11-13T22:29:40.313Z,66.80
2022-11-13T22:32:25.672Z,66.79
2022-11-13T22:35:11.374Z,66.85
2022-11-13T22:37:57.257Z,66.80
2022-11-13T22:40:43.236Z,67.02
2022-11-13T22:43:33.072Z,66.71
2022-11-13T22:46:24.672Z,66.69
2022-11-13T22:49:11.854Z,66.54
2022-11-13T22:51:57.678Z,66.71
2022-11-13T22:54:43.339Z,66.71
2022-11-13T22:57:28.836Z,66.63
2022-11-13T23:00:14.453Z,66.73
2022-11-13T23:03:00.755Z,66.48
2022-11-13T23:05:46.501Z,66.35
2022-11-13T23:08:32.688Z,66.23
2022-11-13T23:11:48.051Z,65.96
2022-11-13T23:14:33.403Z,66.49
2022-11-13T23:17:19.112Z,66.82
2022-11-13T23:20:05.272Z,67.08
2022-11-13T23:22:50.845Z,67.37
2022-11-13T23:25:36.874Z,67.65
2022-11-13T23:28:22.316Z,67.52
2022-11-13T23:31:08.108Z,67.76
2022-11-13T23:33:53.548Z,67.66
2022-11-13T23:36:39.008Z,67.61
2022-11-13T23:39:24.495Z,67.52
2022-11-13T23:42:10.313Z,67.37
2022-11-13T23:44:56.062Z,67.20
2022-11-13T23:47:41.832Z,67.14
2022-11-13T23:50:27.642Z,67.14
2022-11-13T23:53:13.795Z,66.96
2022-11-13T23:55:59.585Z,66.78
2022-11-13T23:58:45.319Z,66.72
